TimePST,TemperatureF,Dew PointF,Humidity,Sea Level PressureIn,VisibilityMPH,Wind Direction,Wind SpeedMPH,Gust SpeedMPH,PrecipitationIn,Events,Conditions,WindDirDegrees,DateUTC
12:29 AM,30.2,30.2,100,29.99,1.2,NE,4.6,-,N/A,,Overcast,50,2012-12-13 08:29:00
12:53 AM,30.0,28.0,92,30.03,1.8,NW,5.8,-,N/A,,Overcast,310,2012-12-13 08:53:00
1:00 AM,28.4,28.4,100,29.99,3.0,NW,5.8,-,N/A,,Overcast,310,2012-12-13 09:00:00
1:10 AM,30.2,28.4,93,29.99,2.0,North,6.9,-,N/A,,Overcast,10,2012-12-13 09:10:00
1:18 AM,30.2,28.4,93,29.99,1.8,North,6.9,-,N/A,,Overcast,360,2012-12-13 09:18:00
1:34 AM,30.2,28.4,93,30.00,3.0,Calm,Calm,-,N/A,,Overcast,0,2012-12-13 09:34:00
1:53 AM,30.0,28.9,96,30.04,4.0,NNW,3.5,-,N/A,,Overcast,340,2012-12-13 09:53:00
1:58 AM,30.2,28.4,93,30.00,1.8,NW,3.5,-,N/A,,Overcast,320,2012-12-13 09:58:00
2:34 AM,28.4,28.4,100,30.00,2.5,NW,3.5,-,N/A,,Overcast,310,2012-12-13 10:34:00
2:42 AM,28.4,28.4,100,30.01,4.0,West,4.6,-,N/A,,Overcast,280,2012-12-13 10:42:00
2:53 AM,28.9,28.0,96,30.05,7.0,West,3.5,-,N/A,,Overcast,280,2012-12-13 10:53:00
3:53 AM,28.0,27.0,96,30.04,4.0,NW,5.8,-,N/A,,Overcast,310,2012-12-13 11:53:00
4:53 AM,28.0,27.0,96,30.05,4.0,WNW,4.6,-,N/A,,Overcast,300,2012-12-13 12:53:00
5:42 AM,28.4,26.6,93,30.01,2.5,NW,3.5,-,N/A,,Overcast,320,2012-12-13 13:42:00
5:53 AM,28.9,28.0,96,30.06,2.0,Calm,Calm,-,N/A,,Overcast,0,2012-12-13 13:53:00
6:26 AM,28.4,28.4,100,30.03,1.2,Calm,Calm,-,N/A,,Overcast,0,2012-12-13 14:26:00
6:53 AM,28.9,27.0,92,30.06,2.5,East,4.6,-,N/A,,Overcast,80,2012-12-13 14:53:00
7:01 AM,28.4,26.6,93,30.02,3.0,East,3.5,-,N/A,,Overcast,80,2012-12-13 15:01:00
7:53 AM,28.0,27.0,96,30.07,3.0,ENE,4.6,-,N/A,,Overcast,70,2012-12-13 15:53:00
8:01 AM,28.4,26.6,93,30.02,2.0,ENE,4.6,-,N/A,,Overcast,70,2012-12-13 16:01:00
8:16 AM,28.4,26.6,93,30.03,1.8,East,3.5,-,N/A,,Overcast,80,2012-12-13 16:16:00
8:53 AM,28.9,28.0,96,30.07,1.8,Calm,Calm,-,N/A,,Overcast,0,2012-12-13 16:53:00
9:53 AM,28.9,28.0,96,30.06,2.5,Calm,Calm,-,N/A,,Overcast,0,2012-12-13 17:53:00
10:29 AM,28.4,28.4,100,30.01,3.0,Calm,Calm,-,N/A,,Overcast,0,2012-12-13 18:29:00
10:53 AM,28.9,28.0,96,30.05,5.0,Calm,Calm,-,N/A,,Overcast,0,2012-12-13 18:53:00
11:53 AM,28.9,27.0,92,30.02,4.0,Calm,Calm,-,N/A,,Overcast,0,2012-12-13 19:53:00
12:53 PM,30.0,28.0,92,30.01,3.0,East,3.5,-,N/A,,Overcast,80,2012-12-13 20:53:00
1:05 PM,30.2,28.4,93,29.96,2.5,East,3.5,-,N/A,,Overcast,80,2012-12-13 21:05:00
1:13 PM,30.2,28.4,93,29.95,3.0,East,3.5,-,N/A,,Overcast,90,2012-12-13 21:13:00
1:22 PM,30.2,28.4,93,29.95,1.8,East,3.5,-,N/A,,Overcast,80,2012-12-13 21:22:00
1:53 PM,30.0,28.9,96,29.98,0.8,Calm,Calm,-,N/A,,Overcast,0,2012-12-13 21:53:00
2:01 PM,30.2,28.4,93,29.94,1.0,East,3.5,-,N/A,,Overcast,100,2012-12-13 22:01:00
2:09 PM,30.2,28.4,93,29.94,0.8,ESE,3.5,-,N/A,,Overcast,110,2012-12-13 22:09:00
2:24 PM,30.2,28.4,93,29.93,1.5,ESE,3.5,-,N/A,,Overcast,110,2012-12-13 22:24:00
2:44 PM,30.2,28.4,93,29.93,1.5,Calm,Calm,-,N/A,,Overcast,0,2012-12-13 22:44:00
3:16 PM,30.2,28.4,93,29.92,2.0,Calm,Calm,-,N/A,,Overcast,0,2012-12-13 23:16:00
3:38 PM,30.2,28.4,93,29.91,1.2,ESE,4.6,-,N/A,,Overcast,110,2012-12-13 23:38:00
4:42 PM,30.2,28.4,93,29.91,3.0,Calm,Calm,-,N/A,,Overcast,0,2012-12-14 00:42:00
5:15 PM,30.2,28.4,93,29.91,3.0,NE,3.5,-,N/A,,Overcast,50,2012-12-14 01:15:00
5:49 PM,30.2,28.4,93,29.90,2.5,East,4.6,-,N/A,,Overcast,80,2012-12-14 01:49:00
5:53 PM,30.0,28.9,96,29.94,2.5,ENE,3.5,-,N/A,,Overcast,70,2012-12-14 01:53:00
6:08 PM,30.2,28.4,93,29.89,4.0,Calm,Calm,-,N/A,,Overcast,0,2012-12-14 02:08:00
6:38 PM,30.2,28.4,93,29.88,5.0,North,3.5,-,N/A,,Overcast,360,2012-12-14 02:38:00
6:53 PM,30.0,28.9,96,29.92,4.0,North,3.5,-,N/A,,Overcast,360,2012-12-14 02:53:00
7:53 PM,30.0,28.9,96,29.91,5.0,NE,3.5,-,N/A,,Overcast,50,2012-12-14 03:53:00
8:53 PM,30.0,28.9,96,29.90,5.0,North,5.8,-,N/A,,Overcast,360,2012-12-14 04:53:00
9:37 PM,30.2,28.4,93,29.86,5.0,North,4.6,-,N/A,,Overcast,10,2012-12-14 05:37:00
10:53 PM,30.0,28.9,96,29.90,10.0,North,3.5,-,N/A,,Overcast,350,2012-12-14 06:53:00
11:53 PM,30.0,28.0,92,29.89,10.0,North,3.5,-,N/A,,Overcast,360,2012-12-14 07:53:00